Kojnas, Russia
Current Conditions -  °F | °C
As of 3:30 AM on Tuesday 23 Dec 2014 (Local Time) from ULAA Reporting Station
Overcast Overcast  
Wind Chill: 18°   Ceiling: 600
Heat Index: 18°   Visibility: 6mi
Dew Point: 16°   Wind: 0mph
Humidity: 93%   Direction: NA
Pressure: 29.12"   Gusts: NA
Location:  64.75°N, 47.65°E
Report Text: ULAA 230030Z 00000MPS 9999 OVC006 M08/M09 Q0986 TEMPO 0400+SHSN FZFG BKN003CB RMK QBB180 QFE739/0985 SC036
Loading
Personal Weather Stations






























Interactive Weather Map New forecast layout! Learn more

10-Day Weather Forecast

Advertisements
Track Severe Weather on mobile